sensor_id;sensor_type;location;lat;lon;timestamp;temperature;humidity
4399;DHT22;2213;49.720;7.296;2022-11-13T00:02:08;4.40;99.90
4399;DHT22;2213;49.720;7.296;2022-11-13T00:04:37;4.40;99.90
4399;DHT22;2213;49.720;7.296;2022-11-13T00:07:06;4.40;99.90
4399;DHT22;2213;49.720;7.296;2022-11-13T00:09:35;4.40;99.90
4399;DHT22;2213;49.720;7.296;2022-11-13T00:12:07;4.40;99.90
4399;DHT22;2213;49.720;7.296;2022-11-13T00:14:37;4.30;99.90
4399;DHT22;2213;49.720;7.296;2022-11-13T00:17:07;4.40;99.90
4399;DHT22;2213;49.720;7.296;2022-11-13T00:19:36;4.40;99.90
4399;DHT22;2213;49.720;7.296;2022-11-13T00:22:05;4.40;99.90
4399;DHT22;2213;49.720;7.296;2022-11-13T00:24:34;4.30;99.90
4399;DHT22;2213;49.720;7.296;2022-11-13T00:27:04;4.40;99.90
4399;DHT22;2213;49.720;7.296;2022-11-13T00:29:35;4.40;99.90
4399;DHT22;2213;49.720;7.296;2022-11-13T00:32:05;4.50;99.90
4399;DHT22;2213;49.720;7.296;2022-11-13T00:34:35;4.40;99.90
4399;DHT22;2213;49.720;7.296;2022-11-13T00:37:14;4.40;99.90
4399;DHT22;2213;49.720;7.296;2022-11-13T00:39:43;4.40;99.90
4399;DHT22;2213;49.720;7.296;2022-11-13T00:42:12;4.40;99.90
4399;DHT22;2213;49.720;7.296;2022-11-13T00:44:43;4.40;99.90
4399;DHT22;2213;49.720;7.296;2022-11-13T00:47:13;4.40;99.90
4399;DHT22;2213;49.720;7.296;2022-11-13T00:49:43;4.30;99.90
4399;DHT22;2213;49.720;7.296;2022-11-13T00:52:11;4.20;99.90
4399;DHT22;2213;49.720;7.296;2022-11-13T00:54:41;4.20;99.90
4399;DHT22;2213;49.720;7.296;2022-11-13T00:57:11;4.30;99.90
4399;DHT22;2213;49.720;7.296;2022-11-13T00:59:40;4.40;99.90
4399;DHT22;2213;49.720;7.296;2022-11-13T01:02:12;4.30;99.90
4399;DHT22;2213;49.720;7.296;2022-11-13T01:04:42;4.30;99.90
4399;DHT22;2213;49.720;7.296;2022-11-13T01:07:12;4.30;99.90
4399;DHT22;2213;49.720;7.296;2022-11-13T01:09:41;4.20;99.90
4399;DHT22;2213;49.720;7.296;2022-11-13T01:12:11;4.20;99.90
4399;DHT22;2213;49.720;7.296;2022-11-13T01:14:40;4.30;99.90
4399;DHT22;2213;49.720;7.296;2022-11-13T01:17:10;4.30;99.90
4399;DHT22;2213;49.720;7.296;2022-11-13T01:19:39;4.30;99.90
4399;DHT22;2213;49.720;7.296;2022-11-13T01:22:08;4.30;99.90
4399;DHT22;2213;49.720;7.296;2022-11-13T01:24:38;4.30;99.90
4399;DHT22;2213;49.720;7.296;2022-11-13T01:27:07;4.30;99.90
4399;DHT22;2213;49.720;7.296;2022-11-13T01:29:36;4.20;99.90
4399;DHT22;2213;49.720;7.296;2022-11-13T01:32:06;4.30;99.90
4399;DHT22;2213;49.720;7.296;2022-11-13T01:34:36;4.30;99.90
4399;DHT22;2213;49.720;7.296;2022-11-13T01:37:06;4.20;99.90
4399;DHT22;2213;49.720;7.296;2022-11-13T01:39:35;4.10;99.90
4399;DHT22;2213;49.720;7.296;2022-11-13T01:42:06;4.00;99.90
4399;DHT22;2213;49.720;7.296;2022-11-13T01:44:49;4.00;99.90
4399;DHT22;2213;49.720;7.296;2022-11-13T01:47:21;4.00;99.90
4399;DHT22;2213;49.720;7.296;2022-11-13T01:49:55;4.10;99.90
4399;DHT22;2213;49.720;7.296;2022-11-13T01:52:28;4.10;99.90
4399;DHT22;2213;49.720;7.296;2022-11-13T01:55:03;4.10;99.90
4399;DHT22;2213;49.720;7.296;2022-11-13T01:57:36;4.20;99.90
4399;DHT22;2213;49.720;7.296;2022-11-13T02:00:09;4.20;99.90
4399;DHT22;2213;49.720;7.296;2022-11-13T02:02:39;4.10;99.90
4399;DHT22;2213;49.720;7.296;2022-11-13T02:05:09;4.20;99.90
4399;DHT22;2213;49.720;7.296;2022-11-13T02:07:38;4.30;99.90
4399;DHT22;2213;49.720;7.296;2022-11-13T02:10:09;4.40;99.90
4399;DHT22;2213;49.720;7.296;2022-11-13T02:12:41;4.40;99.90
4399;DHT22;2213;49.720;7.296;2022-11-13T02:15:14;4.40;99.90
4399;DHT22;2213;49.720;7.296;2022-11-13T02:17:47;4.30;99.90
4399;DHT22;2213;49.720;7.296;2022-11-13T02:20:31;4.30;99.90
4399;DHT22;2213;49.720;7.296;2022-11-13T02:23:12;4.20;99.90
4399;DHT22;2213;49.720;7.296;2022-11-13T02:25:52;4.20;99.90
4399;DHT22;2213;49.720;7.296;2022-11-13T02:28:22;4.20;99.90
4399;DHT22;2213;49.720;7.296;2022-11-13T02:30:52;4.30;99.90
4399;DHT22;2213;49.720;7.296;2022-11-13T02:33:24;4.30;99.90
4399;DHT22;2213;49.720;7.296;2022-11-13T02:35:55;4.30;99.90
4399;DHT22;2213;49.720;7.296;2022-11-13T02:38:24;4.30;99.90
4399;DHT22;2213;49.720;7.296;2022-11-13T02:40:55;4.30;99.90
4399;DHT22;2213;49.720;7.296;2022-11-13T02:43:24;4.30;99.90
4399;DHT22;2213;49.720;7.296;2022-11-13T02:45:53;4.40;99.90
4399;DHT22;2213;49.720;7.296;2022-11-13T02:48:23;4.40;99.90
4399;DHT22;2213;49.720;7.296;2022-11-13T02:50:54;4.30;99.90
4399;DHT22;2213;49.720;7.296;2022-11-13T02:53:23;4.30;99.90
4399;DHT22;2213;49.720;7.296;2022-11-13T02:55:54;4.30;99.90
4399;DHT22;2213;49.720;7.296;2022-11-13T02:58:24;4.40;99.90
4399;DHT22;2213;49.720;7.296;2022-11-13T03:00:53;4.50;99.90
4399;DHT22;2213;49.720;7.296;2022-11-13T03:03:22;4.20;99.90
4399;DHT22;2213;49.720;7.296;2022-11-13T03:06:11;4.20;99.90
4399;DHT22;2213;49.720;7.296;2022-11-13T03:08:41;4.30;99.90
4399;DHT22;2213;49.720;7.296;2022-11-13T03:11:12;4.30;99.90
4399;DHT22;2213;49.720;7.296;2022-11-13T03:13:41;4.30;99.90
4399;DHT22;2213;49.720;7.296;2022-11-13T03:16:12;4.20;99.90
4399;DHT22;2213;49.720;7.296;2022-11-13T03:18:43;4.20;99.90
4399;DHT22;2213;49.720;7.296;2022-11-13T03:21:13;4.10;99.90
4399;DHT22;2213;49.720;7.296;2022-11-13T03:23:43;4.10;99.90
4399;DHT22;2213;49.720;7.296;2022-11-13T03:26:15;4.20;99.90
4399;DHT22;2213;49.720;7.296;2022-11-13T03:28:45;4.10;99.90
4399;DHT22;2213;49.720;7.296;2022-11-13T03:31:15;4.00;99.90
4399;DHT22;2213;49.720;7.296;2022-11-13T03:33:45;4.00;99.90
4399;DHT22;2213;49.720;7.296;2022-11-13T03:36:14;4.00;99.90
4399;DHT22;2213;49.720;7.296;2022-11-13T03:38:42;3.90;99.90
4399;DHT22;2213;49.720;7.296;2022-11-13T03:41:11;3.80;99.90
4399;DHT22;2213;49.720;7.296;2022-11-13T03:43:42;3.80;99.90
4399;DHT22;2213;49.720;7.296;2022-11-13T03:46:10;3.70;99.90
4399;DHT22;2213;49.720;7.296;2022-11-13T03:48:39;3.60;99.90
4399;DHT22;2213;49.720;7.296;2022-11-13T03:51:07;3.50;99.90
4399;DHT22;2213;49.720;7.296;2022-11-13T03:53:37;3.50;99.90
4399;DHT22;2213;49.720;7.296;2022-11-13T03:56:06;3.40;99.90
4399;DHT22;2213;49.720;7.296;2022-11-13T03:58:36;3.30;99.90
4399;DHT22;2213;49.720;7.296;2022-11-13T04:01:07;3.40;99.90
4399;DHT22;2213;49.720;7.296;2022-11-13T04:03:37;3.50;99.90
4399;DHT22;2213;49.720;7.296;2022-11-13T04:06:07;3.30;99.90
4399;DHT22;2213;49.720;7.296;2022-11-13T04:08:36;3.20;99.90
4399;DHT22;2213;49.720;7.296;2022-11-13T04:11:06;3.20;99.90
4399;DHT22;2213;49.720;7.296;2022-11-13T04:13:36;3.20;99.90
4399;DHT22;2213;49.720;7.296;2022-11-13T04:16:08;3.20;99.90
4399;DHT22;2213;49.720;7.296;2022-11-13T04:18:37;3.00;99.90
4399;DHT22;2213;49.720;7.296;2022-11-13T04:21:09;2.90;99.90
4399;DHT22;2213;49.720;7.296;2022-11-13T04:23:38;2.90;99.90
4399;DHT22;2213;49.720;7.296;2022-11-13T04:26:08;3.00;99.90
4399;DHT22;2213;49.720;7.296;2022-11-13T04:28:37;3.00;99.90
4399;DHT22;2213;49.720;7.296;2022-11-13T04:31:08;2.90;99.90
4399;DHT22;2213;49.720;7.296;2022-11-13T04:33:38;2.80;99.90
4399;DHT22;2213;49.720;7.296;2022-11-13T04:36:07;2.90;99.90
4399;DHT22;2213;49.720;7.296;2022-11-13T04:38:38;2.90;99.90
4399;DHT22;2213;49.720;7.296;2022-11-13T04:41:11;2.90;99.90
4399;DHT22;2213;49.720;7.296;2022-11-13T04:44:00;2.80;99.90
4399;DHT22;2213;49.720;7.296;2022-11-13T04:46:30;2.80;99.90
4399;DHT22;2213;49.720;7.296;2022-11-13T04:49:00;2.70;99.90
4399;DHT22;2213;49.720;7.296;2022-11-13T04:51:29;2.70;99.90
4399;DHT22;2213;49.720;7.296;2022-11-13T04:53:59;2.80;99.90
4399;DHT22;2213;49.720;7.296;2022-11-13T04:56:28;2.70;99.90
4399;DHT22;2213;49.720;7.296;2022-11-13T04:58:58;2.60;99.90
4399;DHT22;2213;49.720;7.296;2022-11-13T05:01:27;2.70;99.90
4399;DHT22;2213;49.720;7.296;2022-11-13T05:03:58;2.60;99.90
4399;DHT22;2213;49.720;7.296;2022-11-13T05:06:27;2.60;99.90
4399;DHT22;2213;49.720;7.296;2022-11-13T05:08:56;2.60;99.90
4399;DHT22;2213;49.720;7.296;2022-11-13T05:11:25;2.60;99.90
4399;DHT22;2213;49.720;7.296;2022-11-13T05:13:55;2.60;99.90
4399;DHT22;2213;49.720;7.296;2022-11-13T05:16:33;2.60;99.90
4399;DHT22;2213;49.720;7.296;2022-11-13T05:19:02;2.60;99.90
4399;DHT22;2213;49.720;7.296;2022-11-13T05:21:34;2.60;99.90
4399;DHT22;2213;49.720;7.296;2022-11-13T05:24:08;2.50;99.90
4399;DHT22;2213;49.720;7.296;2022-11-13T05:26:38;2.50;99.90
4399;DHT22;2213;49.720;7.296;2022-11-13T05:29:07;2.50;99.90
4399;DHT22;2213;49.720;7.296;2022-11-13T05:31:39;2.50;99.90
4399;DHT22;2213;49.720;7.296;2022-11-13T05:34:09;2.50;99.90
4399;DHT22;2213;49.720;7.296;2022-11-13T05:36:38;2.60;99.90
4399;DHT22;2213;49.720;7.296;2022-11-13T05:39:08;2.60;99.90
4399;DHT22;2213;49.720;7.296;2022-11-13T05:41:38;2.50;99.90
4399;DHT22;2213;49.720;7.296;2022-11-13T05:44:08;2.60;99.90
4399;DHT22;2213;49.720;7.296;2022-11-13T05:46:39;2.50;99.90
4399;DHT22;2213;49.720;7.296;2022-11-13T05:49:09;2.50;99.90
4399;DHT22;2213;49.720;7.296;2022-11-13T05:51:39;2.40;99.90
4399;DHT22;2213;49.720;7.296;2022-11-13T05:54:08;2.50;99.90
4399;DHT22;2213;49.720;7.296;2022-11-13T05:56:38;2.50;99.90
4399;DHT22;2213;49.720;7.296;2022-11-13T05:59:07;2.50;99.90
4399;DHT22;2213;49.720;7.296;2022-11-13T06:01:39;2.50;99.90
4399;DHT22;2213;49.720;7.296;2022-11-13T06:04:09;2.50;99.90
4399;DHT22;2213;49.720;7.296;2022-11-13T06:06:37;2.40;99.90
4399;DHT22;2213;49.720;7.296;2022-11-13T06:09:08;2.50;99.90
4399;DHT22;2213;49.720;7.296;2022-11-13T06:11:42;2.40;99.90
4399;DHT22;2213;49.720;7.296;2022-11-13T06:14:12;2.40;99.90
4399;DHT22;2213;49.720;7.296;2022-11-13T06:16:44;2.40;99.90
4399;DHT22;2213;49.720;7.296;2022-11-13T06:19:13;2.30;99.90
4399;DHT22;2213;49.720;7.296;2022-11-13T06:21:42;2.30;99.90
4399;DHT22;2213;49.720;7.296;2022-11-13T06:24:12;2.30;99.90
4399;DHT22;2213;49.720;7.296;2022-11-13T06:26:42;2.30;99.90
4399;DHT22;2213;49.720;7.296;2022-11-13T06:29:11;2.30;99.90
4399;DHT22;2213;49.720;7.296;2022-11-13T06:31:42;2.30;99.90
4399;DHT22;2213;49.720;7.296;2022-11-13T06:34:13;2.30;99.90
4399;DHT22;2213;49.720;7.296;2022-11-13T06:36:42;2.30;99.90
4399;DHT22;2213;49.720;7.296;2022-11-13T06:39:12;2.30;99.90
4399;DHT22;2213;49.720;7.296;2022-11-13T06:41:42;2.30;99.90
4399;DHT22;2213;49.720;7.296;2022-11-13T06:44:11;2.20;99.90
4399;DHT22;2213;49.720;7.296;2022-11-13T06:46:40;2.20;99.90
4399;DHT22;2213;49.720;7.296;2022-11-13T06:49:10;2.20;99.90
4399;DHT22;2213;49.720;7.296;2022-11-13T06:51:39;2.20;99.90
4399;DHT22;2213;49.720;7.296;2022-11-13T06:54:09;2.10;99.90
4399;DHT22;2213;49.720;7.296;2022-11-13T06:56:38;2.10;99.90
4399;DHT22;2213;49.720;7.296;2022-11-13T06:59:12;2.10;99.90
4399;DHT22;2213;49.720;7.296;2022-11-13T07:01:42;2.10;99.90
4399;DHT22;2213;49.720;7.296;2022-11-13T07:04:12;2.10;99.90
4399;DHT22;2213;49.720;7.296;2022-11-13T07:06:42;2.20;99.90
4399;DHT22;2213;49.720;7.296;2022-11-13T07:09:11;2.10;99.90
4399;DHT22;2213;49.720;7.296;2022-11-13T07:11:41;2.10;99.90
4399;DHT22;2213;49.720;7.296;2022-11-13T07:14:11;2.10;99.90
4399;DHT22;2213;49.720;7.296;2022-11-13T07:16:40;2.10;99.90
4399;DHT22;2213;49.720;7.296;2022-11-13T07:19:32;2.10;99.90
4399;DHT22;2213;49.720;7.296;2022-11-13T07:22:03;1.90;99.90
4399;DHT22;2213;49.720;7.296;2022-11-13T07:24:32;2.00;99.90
4399;DHT22;2213;49.720;7.296;2022-11-13T07:27:02;2.00;99.90
4399;DHT22;2213;49.720;7.296;2022-11-13T07:29:32;2.00;99.90
4399;DHT22;2213;49.720;7.296;2022-11-13T07:32:02;2.00;99.90
4399;DHT22;2213;49.720;7.296;2022-11-13T07:34:37;2.00;99.90
4399;DHT22;2213;49.720;7.296;2022-11-13T07:37:07;2.00;99.90
4399;DHT22;2213;49.720;7.296;2022-11-13T07:39:36;2.10;99.90
4399;DHT22;2213;49.720;7.296;2022-11-13T07:42:05;2.10;99.90
4399;DHT22;2213;49.720;7.296;2022-11-13T07:44:35;2.10;99.90
4399;DHT22;2213;49.720;7.296;2022-11-13T07:47:21;2.10;99.90
4399;DHT22;2213;49.720;7.296;2022-11-13T07:49:52;2.10;99.90
4399;DHT22;2213;49.720;7.296;2022-11-13T07:52:33;2.20;99.90
4399;DHT22;2213;49.720;7.296;2022-11-13T07:55:04;2.20;99.90
4399;DHT22;2213;49.720;7.296;2022-11-13T07:57:36;2.20;99.90
4399;DHT22;2213;49.720;7.296;2022-11-13T08:00:09;2.20;99.90
4399;DHT22;2213;49.720;7.296;2022-11-13T08:02:41;2.30;99.90
4399;DHT22;2213;49.720;7.296;2022-11-13T08:05:13;2.30;99.90
4399;DHT22;2213;49.720;7.296;2022-11-13T08:07:46;2.40;99.90
4399;DHT22;2213;49.720;7.296;2022-11-13T08:10:18;2.30;99.90
4399;DHT22;2213;49.720;7.296;2022-11-13T08:12:48;2.40;99.90
4399;DHT22;2213;49.720;7.296;2022-11-13T08:15:25;2.40;99.90
4399;DHT22;2213;49.720;7.296;2022-11-13T08:17:55;2.40;99.90
4399;DHT22;2213;49.720;7.296;2022-11-13T08:20:29;2.40;99.90
4399;DHT22;2213;49.720;7.296;2022-11-13T08:22:59;2.40;99.90
4399;DHT22;2213;49.720;7.296;2022-11-13T08:25:31;2.50;99.90
4399;DHT22;2213;49.720;7.296;2022-11-13T08:28:00;2.50;99.90
4399;DHT22;2213;49.720;7.296;2022-11-13T08:30:34;2.50;99.90
4399;DHT22;2213;49.720;7.296;2022-11-13T08:33:04;2.60;99.90
4399;DHT22;2213;49.720;7.296;2022-11-13T08:35:35;2.50;99.90
4399;DHT22;2213;49.720;7.296;2022-11-13T08:38:04;2.60;99.90
4399;DHT22;2213;49.720;7.296;2022-11-13T08:40:34;2.70;99.90
4399;DHT22;2213;49.720;7.296;2022-11-13T08:43:04;2.70;99.90
4399;DHT22;2213;49.720;7.296;2022-11-13T08:45:33;2.70;99.90
4399;DHT22;2213;49.720;7.296;2022-11-13T08:48:05;2.70;99.90
4399;DHT22;2213;49.720;7.296;2022-11-13T08:50:36;2.80;99.90
4399;DHT22;2213;49.720;7.296;2022-11-13T08:53:05;2.80;99.90
4399;DHT22;2213;49.720;7.296;2022-11-13T08:55:34;2.90;99.90
4399;DHT22;2213;49.720;7.296;2022-11-13T08:58:03;2.90;99.90
4399;DHT22;2213;49.720;7.296;2022-11-13T09:00:32;2.80;99.90
4399;DHT22;2213;49.720;7.296;2022-11-13T09:03:02;2.90;99.90
4399;DHT22;2213;49.720;7.296;2022-11-13T09:05:32;3.00;99.90
4399;DHT22;2213;49.720;7.296;2022-11-13T09:08:02;3.00;99.90
4399;DHT22;2213;49.720;7.296;2022-11-13T09:10:32;3.10;99.90
4399;DHT22;2213;49.720;7.296;2022-11-13T09:13:03;3.10;99.90
4399;DHT22;2213;49.720;7.296;2022-11-13T09:15:37;3.20;99.90
4399;DHT22;2213;49.720;7.296;2022-11-13T09:18:06;3.20;99.90
4399;DHT22;2213;49.720;7.296;2022-11-13T09:20:37;3.30;99.90
4399;DHT22;2213;49.720;7.296;2022-11-13T09:23:08;3.30;99.90
4399;DHT22;2213;49.720;7.296;2022-11-13T09:25:39;3.30;99.90
4399;DHT22;2213;49.720;7.296;2022-11-13T09:28:09;3.40;99.90
4399;DHT22;2213;49.720;7.296;2022-11-13T09:30:39;3.50;99.90
4399;DHT22;2213;49.720;7.296;2022-11-13T09:33:09;3.60;99.90
4399;DHT22;2213;49.720;7.296;2022-11-13T09:35:41;3.70;99.90
4399;DHT22;2213;49.720;7.296;2022-11-13T09:38:14;3.80;99.90
4399;DHT22;2213;49.720;7.296;2022-11-13T09:40:49;3.90;99.90
4399;DHT22;2213;49.720;7.296;2022-11-13T09:43:26;4.10;99.90
4399;DHT22;2213;49.720;7.296;2022-11-13T09:46:04;4.20;99.90
4399;DHT22;2213;49.720;7.296;2022-11-13T09:48:37;4.40;99.90
4399;DHT22;2213;49.720;7.296;2022-11-13T09:51:13;4.60;99.90
4399;DHT22;2213;49.720;7.296;2022-11-13T09:53:45;4.70;99.90
4399;DHT22;2213;49.720;7.296;2022-11-13T09:56:26;4.80;99.90
4399;DHT22;2213;49.720;7.296;2022-11-13T09:59:11;5.00;99.90
4399;DHT22;2213;49.720;7.296;2022-11-13T10:01:50;5.00;99.90
4399;DHT22;2213;49.720;7.296;2022-11-13T10:04:49;5.20;99.90
4399;DHT22;2213;49.720;7.296;2022-11-13T10:07:33;5.30;99.90
4399;DHT22;2213;49.720;7.296;2022-11-13T10:10:30;5.40;99.90
4399;DHT22;2213;49.720;7.296;2022-11-13T10:13:24;5.50;99.90
4399;DHT22;2213;49.720;7.296;2022-11-13T10:16:16;5.60;99.90
4399;DHT22;2213;49.720;7.296;2022-11-13T10:18:57;5.70;99.90
4399;DHT22;2213;49.720;7.296;2022-11-13T10:21:41;5.80;99.90
4399;DHT22;2213;49.720;7.296;2022-11-13T10:24:16;5.90;99.90
4399;DHT22;2213;49.720;7.296;2022-11-13T10:26:52;6.00;99.90
4399;DHT22;2213;49.720;7.296;2022-11-13T10:29:23;6.10;99.90
4399;DHT22;2213;49.720;7.296;2022-11-13T10:31:56;6.20;99.90
4399;DHT22;2213;49.720;7.296;2022-11-13T10:34:27;6.20;99.90
4399;DHT22;2213;49.720;7.296;2022-11-13T10:37:21;6.20;99.90
4399;DHT22;2213;49.720;7.296;2022-11-13T10:40:23;6.20;99.90
4399;DHT22;2213;49.720;7.296;2022-11-13T10:43:03;6.20;99.90
4399;DHT22;2213;49.720;7.296;2022-11-13T10:45:33;6.30;99.90
4399;DHT22;2213;49.720;7.296;2022-11-13T10:48:05;6.30;99.90
4399;DHT22;2213;49.720;7.296;2022-11-13T10:50:53;6.40;99.90
4399;DHT22;2213;49.720;7.296;2022-11-13T10:53:25;6.50;99.90
4399;DHT22;2213;49.720;7.296;2022-11-13T10:56:01;6.50;99.90
4399;DHT22;2213;49.720;7.296;2022-11-13T10:58:40;6.60;99.90
4399;DHT22;2213;49.720;7.296;2022-11-13T11:01:13;6.60;99.90
4399;DHT22;2213;49.720;7.296;2022-11-13T11:03:50;6.60;99.90
4399;DHT22;2213;49.720;7.296;2022-11-13T11:06:19;6.60;99.90
4399;DHT22;2213;49.720;7.296;2022-11-13T11:09:21;6.70;99.90
4399;DHT22;2213;49.720;7.296;2022-11-13T11:11:58;6.70;99.90
4399;DHT22;2213;49.720;7.296;2022-11-13T11:15:00;6.80;99.90
4399;DHT22;2213;49.720;7.296;2022-11-13T11:17:56;6.80;99.90
4399;DHT22;2213;49.720;7.296;2022-11-13T11:20:44;6.90;99.90
4399;DHT22;2213;49.720;7.296;2022-11-13T11:23:21;6.90;99.90
4399;DHT22;2213;49.720;7.296;2022-11-13T11:25:58;6.90;99.90
4399;DHT22;2213;49.720;7.296;2022-11-13T11:28:36;6.90;99.90
4399;DHT22;2213;49.720;7.296;2022-11-13T11:31:19;7.00;99.90
4399;DHT22;2213;49.720;7.296;2022-11-13T11:33:58;7.00;99.90
4399;DHT22;2213;49.720;7.296;2022-11-13T11:36:34;7.10;99.90
4399;DHT22;2213;49.720;7.296;2022-11-13T11:39:25;7.20;99.90
4399;DHT22;2213;49.720;7.296;2022-11-13T11:42:17;7.30;99.90
4399;DHT22;2213;49.720;7.296;2022-11-13T11:44:59;7.40;99.90
4399;DHT22;2213;49.720;7.296;2022-11-13T11:47:35;7.40;99.90
4399;DHT22;2213;49.720;7.296;2022-11-13T11:50:11;7.40;99.90
4399;DHT22;2213;49.720;7.296;2022-11-13T11:52:53;7.40;99.90
4399;DHT22;2213;49.720;7.296;2022-11-13T11:55:42;7.50;99.90
4399;DHT22;2213;49.720;7.296;2022-11-13T11:58:33;7.50;99.90
4399;DHT22;2213;49.720;7.296;2022-11-13T12:01:28;7.50;99.90
4399;DHT22;2213;49.720;7.296;2022-11-13T12:04:13;7.50;99.90
4399;DHT22;2213;49.720;7.296;2022-11-13T12:07:01;7.50;99.90
4399;DHT22;2213;49.720;7.296;2022-11-13T12:09:42;7.50;99.90
4399;DHT22;2213;49.720;7.296;2022-11-13T12:12:28;7.60;99.90
4399;DHT22;2213;49.720;7.296;2022-11-13T12:15:13;7.50;99.90
4399;DHT22;2213;49.720;7.296;2022-11-13T12:17:58;7.60;99.90
4399;DHT22;2213;49.720;7.296;2022-11-13T12:20:45;7.70;99.90
4399;DHT22;2213;49.720;7.296;2022-11-13T12:23:38;7.70;99.90
4399;DHT22;2213;49.720;7.296;2022-11-13T12:26:21;7.70;99.90
4399;DHT22;2213;49.720;7.296;2022-11-13T12:28:59;7.70;99.90
4399;DHT22;2213;49.720;7.296;2022-11-13T12:31:47;7.70;99.90
4399;DHT22;2213;49.720;7.296;2022-11-13T12:34:29;7.70;99.90
4399;DHT22;2213;49.720;7.296;2022-11-13T12:37:11;7.70;99.90
4399;DHT22;2213;49.720;7.296;2022-11-13T12:39:47;7.60;99.90
4399;DHT22;2213;49.720;7.296;2022-11-13T12:42:31;7.60;99.90
4399;DHT22;2213;49.720;7.296;2022-11-13T12:45:08;7.60;99.90
4399;DHT22;2213;49.720;7.296;2022-11-13T12:47:45;7.70;99.90
4399;DHT22;2213;49.720;7.296;2022-11-13T12:50:23;7.70;99.90
4399;DHT22;2213;49.720;7.296;2022-11-13T12:53:01;7.70;99.90
4399;DHT22;2213;49.720;7.296;2022-11-13T12:55:34;7.70;99.90
4399;DHT22;2213;49.720;7.296;2022-11-13T12:58:09;7.80;99.90
4399;DHT22;2213;49.720;7.296;2022-11-13T13:00:53;7.80;99.90
4399;DHT22;2213;49.720;7.296;2022-11-13T13:03:44;7.70;99.90
4399;DHT22;2213;49.720;7.296;2022-11-13T13:06:53;7.80;99.90
4399;DHT22;2213;49.720;7.296;2022-11-13T13:09:47;7.80;99.90
4399;DHT22;2213;49.720;7.296;2022-11-13T13:12:30;7.70;99.90
4399;DHT22;2213;49.720;7.296;2022-11-13T13:15:21;7.60;99.90
4399;DHT22;2213;49.720;7.296;2022-11-13T13:18:07;7.80;99.90
4399;DHT22;2213;49.720;7.296;2022-11-13T13:20:44;7.90;99.90
4399;DHT22;2213;49.720;7.296;2022-11-13T13:23:31;8.00;99.90
4399;DHT22;2213;49.720;7.296;2022-11-13T13:26:14;8.10;99.90
4399;DHT22;2213;49.720;7.296;2022-11-13T13:28:49;8.10;99.90
4399;DHT22;2213;49.720;7.296;2022-11-13T13:31:31;8.10;99.90
4399;DHT22;2213;49.720;7.296;2022-11-13T13:34:36;8.30;99.90
4399;DHT22;2213;49.720;7.296;2022-11-13T13:37:22;8.40;99.90
4399;DHT22;2213;49.720;7.296;2022-11-13T13:40:14;8.50;99.90
4399;DHT22;2213;49.720;7.296;2022-11-13T13:43:05;8.60;99.90
4399;DHT22;2213;49.720;7.296;2022-11-13T13:46:12;8.80;99.90
4399;DHT22;2213;49.720;7.296;2022-11-13T13:48:49;8.90;99.90
4399;DHT22;2213;49.720;7.296;2022-11-13T13:51:31;9.00;99.90
4399;DHT22;2213;49.720;7.296;2022-11-13T13:54:06;9.00;99.90
4399;DHT22;2213;49.720;7.296;2022-11-13T13:56:40;9.00;99.90
4399;DHT22;2213;49.720;7.296;2022-11-13T13:59:16;9.10;99.90
4399;DHT22;2213;49.720;7.296;2022-11-13T14:01:53;9.00;99.90
4399;DHT22;2213;49.720;7.296;2022-11-13T14:04:26;9.10;99.90
4399;DHT22;2213;49.720;7.296;2022-11-13T14:06:58;9.10;99.90
4399;DHT22;2213;49.720;7.296;2022-11-13T14:09:29;9.10;99.90
4399;DHT22;2213;49.720;7.296;2022-11-13T14:12:01;9.10;99.90
4399;DHT22;2213;49.720;7.296;2022-11-13T14:14:38;9.10;99.90
4399;DHT22;2213;49.720;7.296;2022-11-13T14:17:08;9.10;99.90
4399;DHT22;2213;49.720;7.296;2022-11-13T14:19:39;9.10;99.90
4399;DHT22;2213;49.720;7.296;2022-11-13T14:22:17;9.10;99.90
4399;DHT22;2213;49.720;7.296;2022-11-13T14:24:49;9.10;99.90
4399;DHT22;2213;49.720;7.296;2022-11-13T14:27:23;9.10;99.90
4399;DHT22;2213;49.720;7.296;2022-11-13T14:29:59;9.00;99.90
4399;DHT22;2213;49.720;7.296;2022-11-13T14:32:31;9.00;99.90
4399;DHT22;2213;49.720;7.296;2022-11-13T14:35:02;9.00;99.90
4399;DHT22;2213;49.720;7.296;2022-11-13T14:37:36;9.00;99.90
4399;DHT22;2213;49.720;7.296;2022-11-13T14:40:22;9.00;99.90
4399;DHT22;2213;49.720;7.296;2022-11-13T14:42:55;8.90;99.90
4399;DHT22;2213;49.720;7.296;2022-11-13T14:45:32;8.90;99.90
4399;DHT22;2213;49.720;7.296;2022-11-13T14:48:03;8.90;99.90
4399;DHT22;2213;49.720;7.296;2022-11-13T14:50:49;8.90;99.90
4399;DHT22;2213;49.720;7.296;2022-11-13T14:53:28;8.70;99.90
4399;DHT22;2213;49.720;7.296;2022-11-13T14:56:00;8.70;99.90
4399;DHT22;2213;49.720;7.296;2022-11-13T14:58:32;8.60;99.90
4399;DHT22;2213;49.720;7.296;2022-11-13T15:01:16;8.60;99.90
4399;DHT22;2213;49.720;7.296;2022-11-13T15:03:48;8.60;99.90
4399;DHT22;2213;49.720;7.296;2022-11-13T15:06:20;8.50;99.90
4399;DHT22;2213;49.720;7.296;2022-11-13T15:08:56;8.40;99.90
4399;DHT22;2213;49.720;7.296;2022-11-13T15:11:26;8.30;99.90
4399;DHT22;2213;49.720;7.296;2022-11-13T15:13:56;8.20;99.90
4399;DHT22;2213;49.720;7.296;2022-11-13T15:16:32;8.20;99.90
4399;DHT22;2213;49.720;7.296;2022-11-13T15:19:04;8.20;99.90
4399;DHT22;2213;49.720;7.296;2022-11-13T15:21:39;8.20;99.90
4399;DHT22;2213;49.720;7.296;2022-11-13T15:24:17;8.00;99.90
4399;DHT22;2213;49.720;7.296;2022-11-13T15:26:47;8.10;99.90
4399;DHT22;2213;49.720;7.296;2022-11-13T15:29:16;8.10;99.90
4399;DHT22;2213;49.720;7.296;2022-11-13T15:31:47;7.90;99.90
4399;DHT22;2213;49.720;7.296;2022-11-13T15:34:17;7.90;99.90
4399;DHT22;2213;49.720;7.296;2022-11-13T15:36:46;7.90;99.90
4399;DHT22;2213;49.720;7.296;2022-11-13T15:39:16;7.80;99.90
4399;DHT22;2213;49.720;7.296;2022-11-13T15:41:50;7.80;99.90
4399;DHT22;2213;49.720;7.296;2022-11-13T15:44:20;7.80;99.90
4399;DHT22;2213;49.720;7.296;2022-11-13T15:46:53;7.90;99.90
4399;DHT22;2213;49.720;7.296;2022-11-13T15:49:22;7.90;99.90
4399;DHT22;2213;49.720;7.296;2022-11-13T15:51:54;7.80;99.90
4399;DHT22;2213;49.720;7.296;2022-11-13T15:54:25;7.60;99.90
4399;DHT22;2213;49.720;7.296;2022-11-13T15:56:58;7.50;99.90
4399;DHT22;2213;49.720;7.296;2022-11-13T15:59:28;7.40;99.90
4399;DHT22;2213;49.720;7.296;2022-11-13T16:02:00;7.50;99.90
4399;DHT22;2213;49.720;7.296;2022-11-13T16:04:30;7.50;99.90
4399;DHT22;2213;49.720;7.296;2022-11-13T16:07:25;7.40;99.90
4399;DHT22;2213;49.720;7.296;2022-11-13T16:09:57;7.40;99.90
4399;DHT22;2213;49.720;7.296;2022-11-13T16:12:27;7.30;99.90
4399;DHT22;2213;49.720;7.296;2022-11-13T16:14:56;7.30;99.90
4399;DHT22;2213;49.720;7.296;2022-11-13T16:17:29;7.20;99.90
4399;DHT22;2213;49.720;7.296;2022-11-13T16:20:07;7.00;99.90
4399;DHT22;2213;49.720;7.296;2022-11-13T16:22:39;7.00;99.90
4399;DHT22;2213;49.720;7.296;2022-11-13T16:25:10;6.90;99.90
4399;DHT22;2213;49.720;7.296;2022-11-13T16:27:41;6.80;99.90
4399;DHT22;2213;49.720;7.296;2022-11-13T16:30:15;6.80;99.90
4399;DHT22;2213;49.720;7.296;2022-11-13T16:32:48;6.80;99.90
4399;DHT22;2213;49.720;7.296;2022-11-13T16:35:18;6.70;99.90
4399;DHT22;2213;49.720;7.296;2022-11-13T16:37:48;6.70;99.90
4399;DHT22;2213;49.720;7.296;2022-11-13T16:40:20;6.60;99.90
4399;DHT22;2213;49.720;7.296;2022-11-13T16:42:52;6.60;99.90
4399;DHT22;2213;49.720;7.296;2022-11-13T16:45:22;6.50;99.90
4399;DHT22;2213;49.720;7.296;2022-11-13T16:47:52;6.40;99.90
4399;DHT22;2213;49.720;7.296;2022-11-13T16:50:28;6.40;99.90
4399;DHT22;2213;49.720;7.296;2022-11-13T16:52:58;6.40;99.90
4399;DHT22;2213;49.720;7.296;2022-11-13T16:55:28;6.30;99.90
4399;DHT22;2213;49.720;7.296;2022-11-13T16:57:57;6.20;99.90
4399;DHT22;2213;49.720;7.296;2022-11-13T17:00:27;6.10;99.90
4399;DHT22;2213;49.720;7.296;2022-11-13T17:02:59;6.10;99.90